Time;durP1;ratioP1;P1;durP2;ratioP2;P2;SDS_P1;SDS_P2;PMS_P1;PMS_P2;Temp;Humidity;BMP_temperature;BMP_pressure;BME280_temperature;BME280_humidity;BME280_pressure;Samples;Min_cycle;Max_cycle;Signal;HPM_P1;HPM_P2
2022/11/22 00:01:56;;;;;;;23.42;13.38;;;;;;;;;;5088816;28;20459;-65
2022/11/22 00:04:22;;;;;;;24.85;13.55;;;;;;;;;;5072043;28;20040;-65
2022/11/22 00:06:48;;;;;;;25.27;13.55;;;;;;;;;;5071768;28;20036;-65
2022/11/22 00:09:14;;;;;;;23.75;13.40;;;;;;;;;;5086030;28;20474;-65
2022/11/22 00:11:40;;;;;;;25.27;13.88;;;;;;;;;;5091880;28;20083;-65
2022/11/22 00:14:06;;;;;;;26.73;13.45;;;;;;;;;;5091725;28;20040;-65
2022/11/22 00:16:33;;;;;;;25.75;13.52;;;;;;;;;;5091795;28;20052;-65
2022/11/22 00:19:00;;;;;;;26.55;13.75;;;;;;;;;;5092021;28;20048;-65
2022/11/22 00:21:26;;;;;;;23.55;12.57;;;;;;;;;;5091478;28;20040;-65
2022/11/22 00:23:56;;;;;;;25.10;12.90;;;;;;;;;;5092188;28;20115;-65
2022/11/22 00:26:22;;;;;;;22.70;12.13;;;;;;;;;;5091901;28;20079;-65
2022/11/22 00:28:48;;;;;;;21.92;12.52;;;;;;;;;;5094699;28;20093;-65
2022/11/22 00:31:14;;;;;;;23.42;12.52;;;;;;;;;;5095345;28;20039;-65
2022/11/22 00:33:41;;;;;;;25.30;12.80;;;;;;;;;;5094852;28;20055;-65
2022/11/22 00:36:07;;;;;;;24.73;11.85;;;;;;;;;;5095195;28;20036;-65
2022/11/22 00:38:33;;;;;;;23.35;13.40;;;;;;;;;;5095358;28;20502;-65
2022/11/22 00:40:59;;;;;;;22.55;11.95;;;;;;;;;;5095489;28;20368;-65
2022/11/22 00:43:25;;;;;;;21.98;11.57;;;;;;;;;;5095195;28;20062;-65
2022/11/22 00:45:51;;;;;;;21.27;12.00;;;;;;;;;;5095585;28;20481;-65
2022/11/22 00:48:17;;;;;;;25.63;13.23;;;;;;;;;;5095461;28;20146;-65
2022/11/22 00:50:43;;;;;;;20.60;12.05;;;;;;;;;;5094981;28;20052;-65
2022/11/22 00:53:09;;;;;;;23.38;13.18;;;;;;;;;;5094895;28;20047;-65
2022/11/22 00:55:35;;;;;;;22.63;12.02;;;;;;;;;;5095679;28;20494;-65
2022/11/22 00:58:02;;;;;;;22.20;11.88;;;;;;;;;;5094672;28;20071;-65
2022/11/22 01:00:28;;;;;;;24.55;13.23;;;;;;;;;;5095042;28;20110;-65
2022/11/22 01:02:54;;;;;;;22.45;12.93;;;;;;;;;;5083363;28;20471;-65
2022/11/22 01:05:20;;;;;;;20.80;12.95;;;;;;;;;;5074242;28;20045;-65
2022/11/22 01:07:46;;;;;;;21.35;11.85;;;;;;;;;;5078001;28;20089;-65
2022/11/22 01:10:12;;;;;;;23.38;12.95;;;;;;;;;;5094881;28;20032;-65
2022/11/22 01:12:38;;;;;;;25.17;13.18;;;;;;;;;;5094506;28;20056;-65
2022/11/22 01:15:04;;;;;;;25.77;14.15;;;;;;;;;;5094955;28;20047;-65
2022/11/22 01:17:30;;;;;;;21.67;12.73;;;;;;;;;;5094797;28;20044;-65
2022/11/22 01:19:56;;;;;;;26.02;13.70;;;;;;;;;;5094555;28;20051;-65
2022/11/22 01:22:22;;;;;;;30.52;13.68;;;;;;;;;;5094986;28;20028;-65
2022/11/22 01:24:49;;;;;;;24.38;13.32;;;;;;;;;;5094848;28;20032;-65
2022/11/22 01:27:15;;;;;;;24.52;14.15;;;;;;;;;;5094195;28;20040;-65
2022/11/22 01:29:41;;;;;;;25.45;13.50;;;;;;;;;;5094723;28;20469;-65
2022/11/22 01:32:07;;;;;;;23.70;14.10;;;;;;;;;;5094202;28;20509;-65
2022/11/22 01:34:33;;;;;;;28.48;15.13;;;;;;;;;;5094572;28;20036;-65
2022/11/22 01:36:59;;;;;;;24.17;14.50;;;;;;;;;;5095002;28;20040;-65
2022/11/22 01:39:25;;;;;;;24.77;14.05;;;;;;;;;;5093765;28;20173;-65
2022/11/22 01:41:52;;;;;;;22.98;13.77;;;;;;;;;;5093860;28;20043;-65
2022/11/22 01:44:19;;;;;;;28.40;15.02;;;;;;;;;;5094390;28;20490;-65
2022/11/22 01:46:45;;;;;;;26.17;14.77;;;;;;;;;;5094575;28;20047;-65
2022/11/22 01:49:18;;;;;;;27.58;14.32;;;;;;;;;;5094088;28;20048;-65
2022/11/22 01:51:46;;;;;;;25.35;14.75;;;;;;;;;;5094142;28;20044;-65
2022/11/22 01:54:14;;;;;;;26.27;14.45;;;;;;;;;;5093926;28;20047;-65
2022/11/22 01:56:42;;;;;;;28.92;14.20;;;;;;;;;;5093749;28;20036;-65
2022/11/22 01:59:10;;;;;;;31.15;15.77;;;;;;;;;;5094274;28;20043;-65
2022/11/22 02:01:36;;;;;;;27.55;14.25;;;;;;;;;;5093184;28;20040;-65
2022/11/22 02:04:03;;;;;;;25.45;14.90;;;;;;;;;;5073617;28;20084;-65
2022/11/22 02:06:52;;;;;;;27.95;14.30;;;;;;;;;;5072053;28;20086;-65
2022/11/22 02:09:19;;;;;;;25.33;14.13;;;;;;;;;;5088230;28;20068;-65
2022/11/22 02:11:49;;;;;;;32.08;14.75;;;;;;;;;;5092184;28;20044;-65
2022/11/22 02:14:16;;;;;;;28.38;14.02;;;;;;;;;;5093754;28;20036;-65
2022/11/22 02:16:43;;;;;;;27.23;14.35;;;;;;;;;;5093668;28;20167;-65
2022/11/22 02:19:14;;;;;;;23.98;14.15;;;;;;;;;;5093587;28;20044;-65
2022/11/22 02:21:40;;;;;;;29.35;14.70;;;;;;;;;;5093119;28;20048;-65
2022/11/22 02:24:10;;;;;;;28.25;13.80;;;;;;;;;;5093689;28;20097;-65
2022/11/22 02:26:36;;;;;;;29.05;14.07;;;;;;;;;;5093141;28;20036;-65
2022/11/22 02:29:04;;;;;;;28.20;14.88;;;;;;;;;;5093770;28;20515;-65
2022/11/22 02:31:35;;;;;;;28.25;14.77;;;;;;;;;;5093120;28;20044;-65
2022/11/22 02:34:01;;;;;;;25.17;13.65;;;;;;;;;;5093097;28;20040;-65
2022/11/22 02:36:27;;;;;;;28.92;15.10;;;;;;;;;;5093330;28;20047;-65
2022/11/22 02:38:53;;;;;;;30.00;14.23;;;;;;;;;;5092907;28;20052;-65
2022/11/22 02:41:19;;;;;;;26.80;15.20;;;;;;;;;;5092574;28;20100;-65
2022/11/22 02:43:46;;;;;;;25.50;13.93;;;;;;;;;;5092740;28;20079;-65
2022/11/22 02:46:19;;;;;;;26.27;14.27;;;;;;;;;;5092963;28;20423;-65
2022/11/22 02:48:46;;;;;;;25.13;14.57;;;;;;;;;;5092819;28;20040;-65
2022/11/22 02:51:15;;;;;;;27.85;13.95;;;;;;;;;;5093018;28;20055;-65
2022/11/22 02:53:45;;;;;;;25.27;14.57;;;;;;;;;;5092886;28;20073;-65
2022/11/22 02:56:12;;;;;;;25.05;13.95;;;;;;;;;;5092624;28;20124;-65
2022/11/22 02:58:38;;;;;;;25.45;14.30;;;;;;;;;;5092773;28;20435;-65
2022/11/22 03:01:04;;;;;;;25.98;14.00;;;;;;;;;;5092662;28;20036;-65
2022/11/22 03:03:31;;;;;;;22.95;13.35;;;;;;;;;;5075319;28;20063;-65
2022/11/22 03:05:57;;;;;;;24.85;14.68;;;;;;;;;;5072254;28;20119;-65
2022/11/22 03:08:23;;;;;;;31.63;15.50;;;;;;;;;;5081043;28;20048;-65
2022/11/22 03:10:49;;;;;;;26.65;14.02;;;;;;;;;;5092586;28;20040;-66
2022/11/22 03:13:15;;;;;;;26.10;14.00;;;;;;;;;;5093014;28;20482;-65
2022/11/22 03:15:41;;;;;;;27.63;13.82;;;;;;;;;;5092320;28;20117;-65
2022/11/22 03:18:07;;;;;;;27.40;13.63;;;;;;;;;;5092138;28;20047;-65
2022/11/22 03:20:35;;;;;;;29.00;14.18;;;;;;;;;;5092398;28;20054;-65
2022/11/22 03:23:01;;;;;;;27.13;13.75;;;;;;;;;;5092620;28;20067;-65
2022/11/22 03:25:27;;;;;;;25.88;14.00;;;;;;;;;;5092007;28;20048;-65
2022/11/22 03:27:53;;;;;;;28.48;14.10;;;;;;;;;;5092690;28;20514;-65
2022/11/22 03:30:19;;;;;;;27.02;13.88;;;;;;;;;;5092137;28;20127;-65
2022/11/22 03:32:45;;;;;;;27.83;15.23;;;;;;;;;;5092037;28;20127;-65
2022/11/22 03:35:11;;;;;;;25.75;13.48;;;;;;;;;;5092265;28;20040;-65
2022/11/22 03:37:37;;;;;;;25.65;13.30;;;;;;;;;;5092597;28;20036;-65
2022/11/22 03:40:04;;;;;;;27.17;15.02;;;;;;;;;;5091745;28;20482;-65
2022/11/22 03:42:30;;;;;;;27.75;14.55;;;;;;;;;;5092249;28;20493;-65
2022/11/22 03:44:56;;;;;;;23.08;14.05;;;;;;;;;;5092413;28;20444;-65
2022/11/22 03:47:22;;;;;;;28.05;14.00;;;;;;;;;;5092136;28;20039;-65
2022/11/22 03:49:48;;;;;;;27.77;15.32;;;;;;;;;;5092411;28;20088;-65
2022/11/22 03:52:14;;;;;;;31.02;13.57;;;;;;;;;;5092856;28;20391;-65
2022/11/22 03:54:40;;;;;;;24.95;13.30;;;;;;;;;;5092568;28;20070;-65
2022/11/22 03:57:06;;;;;;;23.88;13.52;;;;;;;;;;5092099;28;20040;-65
2022/11/22 03:59:32;;;;;;;23.30;13.70;;;;;;;;;;5092101;28;20047;-65
2022/11/22 04:01:58;;;;;;;25.60;13.50;;;;;;;;;;5088088;28;20036;-65
2022/11/22 04:04:24;;;;;;;25.88;13.88;;;;;;;;;;5075890;28;20122;-65
2022/11/22 04:06:51;;;;;;;25.48;13.57;;;;;;;;;;5076113;28;20047;-65
2022/11/22 04:09:17;;;;;;;26.02;14.38;;;;;;;;;;5092260;28;20039;-65
2022/11/22 04:11:43;;;;;;;25.77;13.98;;;;;;;;;;5095871;28;20466;-65
2022/11/22 04:16:57;;;;;;;24.52;13.48;;;;;;;;;;5096172;28;20604;-65
2022/11/22 04:19:23;;;;;;;26.33;13.65;;;;;;;;;;5096334;28;20127;-65
2022/11/22 04:21:49;;;;;;;22.88;13.15;;;;;;;;;;5096184;28;20036;-65
2022/11/22 04:27:00;;;;;;;26.38;14.18;;;;;;;;;;5095798;28;20044;-65
2022/11/22 04:29:27;;;;;;;24.73;13.70;;;;;;;;;;5095496;28;20044;-65
2022/11/22 04:34:38;;;;;;;26.00;14.50;;;;;;;;;;5096195;28;20410;-65
2022/11/22 04:37:04;;;;;;;24.40;14.13;;;;;;;;;;5096153;28;20040;-65
2022/11/22 04:39:31;;;;;;;24.23;12.88;;;;;;;;;;5095251;28;20052;-65
2022/11/22 04:44:42;;;;;;;24.95;14.07;;;;;;;;;;5095706;28;20078;-65
2022/11/22 04:47:09;;;;;;;26.90;13.55;;;;;;;;;;5095518;28;20538;-65
2022/11/22 04:49:35;;;;;;;23.52;13.38;;;;;;;;;;5095725;28;20044;-65
2022/11/22 04:54:47;;;;;;;27.20;14.00;;;;;;;;;;5095264;28;20582;-65
2022/11/22 04:57:13;;;;;;;23.17;12.60;;;;;;;;;;5095562;28;20463;-65
2022/11/22 04:59:39;;;;;;;25.75;14.25;;;;;;;;;;5095461;28;20036;-65
2022/11/22 05:02:05;;;;;;;21.92;12.82;;;;;;;;;;5089688;28;20028;-65
2022/11/22 05:04:31;;;;;;;25.92;14.05;;;;;;;;;;5074806;28;20045;-65
2022/11/22 05:06:57;;;;;;;26.40;13.70;;;;;;;;;;5074852;28;20043;-65
2022/11/22 05:09:23;;;;;;;20.85;12.93;;;;;;;;;;5091175;28;20469;-65
2022/11/22 05:11:49;;;;;;;22.30;13.32;;;;;;;;;;5095360;28;20071;-65
2022/11/22 05:14:15;;;;;;;24.55;14.18;;;;;;;;;;5093942;28;20451;-65
2022/11/22 05:16:41;;;;;;;24.98;13.93;;;;;;;;;;5094805;28;20048;-65
2022/11/22 05:19:07;;;;;;;21.55;12.18;;;;;;;;;;5095472;28;20083;-65
2022/11/22 05:21:37;;;;;;;25.27;13.45;;;;;;;;;;5095154;28;20036;-65
2022/11/22 05:24:03;;;;;;;27.48;14.10;;;;;;;;;;5094124;28;20082;-65
2022/11/22 05:26:30;;;;;;;24.88;13.65;;;;;;;;;;5093594;28;20079;-65
2022/11/22 05:28:57;;;;;;;27.90;13.60;;;;;;;;;;5095179;28;20044;-65
2022/11/22 05:31:25;;;;;;;24.25;13.43;;;;;;;;;;5094295;28;20050;-65
2022/11/22 05:33:52;;;;;;;22.48;13.40;;;;;;;;;;5094804;28;20101;-65
2022/11/22 05:36:19;;;;;;;23.02;13.32;;;;;;;;;;5094820;28;20044;-65
2022/11/22 05:38:45;;;;;;;24.40;13.27;;;;;;;;;;5094300;28;20084;-65
2022/11/22 05:41:12;;;;;;;22.95;13.80;;;;;;;;;;5093967;28;20039;-65
2022/11/22 05:43:38;;;;;;;22.55;13.10;;;;;;;;;;5094613;28;20035;-65
2022/11/22 05:46:10;;;;;;;27.23;14.10;;;;;;;;;;5092924;28;20044;-65
2022/11/22 05:48:37;;;;;;;28.85;15.68;;;;;;;;;;5093182;28;20044;-65
2022/11/22 05:51:04;;;;;;;25.17;12.90;;;;;;;;;;5094376;28;20081;-65
2022/11/22 05:53:30;;;;;;;23.02;13.85;;;;;;;;;;5093974;28;20174;-65
2022/11/22 05:55:56;;;;;;;21.45;12.77;;;;;;;;;;5094148;28;20039;-65
2022/11/22 05:58:22;;;;;;;24.02;13.50;;;;;;;;;;5081813;28;20398;-65
2022/11/22 06:00:48;;;;;;;23.63;12.93;;;;;;;;;;5092303;28;20036;-65
2022/11/22 06:03:14;;;;;;;18.98;12.30;;;;;;;;;;5078349;28;20036;-65
2022/11/22 06:05:40;;;;;;;25.73;13.02;;;;;;;;;;5073838;28;20032;-65
2022/11/22 06:08:07;;;;;;;23.98;12.85;;;;;;;;;;5079101;28;20081;-65
2022/11/22 06:10:36;;;;;;;22.00;12.50;;;;;;;;;;5094130;28;20032;-65
2022/11/22 06:13:02;;;;;;;21.67;12.45;;;;;;;;;;5093878;28;20036;-65
2022/11/22 06:15:29;;;;;;;22.05;12.65;;;;;;;;;;5093615;28;20028;-65
2022/11/22 06:17:55;;;;;;;19.83;12.25;;;;;;;;;;5093650;28;20058;-65
2022/11/22 06:20:21;;;;;;;21.58;11.98;;;;;;;;;;5093753;28;20044;-65
2022/11/22 06:22:47;;;;;;;20.15;11.43;;;;;;;;;;5093105;28;20040;-65
2022/11/22 06:25:13;;;;;;;22.55;11.80;;;;;;;;;;5092802;28;20094;-65
2022/11/22 06:27:39;;;;;;;20.92;11.63;;;;;;;;;;5093687;28;20471;-65
2022/11/22 06:30:06;;;;;;;19.48;10.77;;;;;;;;;;5093166;28;20063;-65
2022/11/22 06:32:33;;;;;;;21.27;11.15;;;;;;;;;;5093239;28;20092;-65
2022/11/22 06:34:59;;;;;;;21.50;11.02;;;;;;;;;;5093546;28;20168;-65
2022/11/22 06:37:25;;;;;;;25.85;10.88;;;;;;;;;;5093588;28;20298;-65
2022/11/22 06:39:51;;;;;;;22.33;9.93;;;;;;;;;;5092806;28;20047;-65
2022/11/22 06:42:17;;;;;;;28.83;11.20;;;;;;;;;;5092987;28;20517;-65
2022/11/22 06:44:43;;;;;;;22.60;9.82;;;;;;;;;;5092755;28;20478;-65
2022/11/22 06:47:09;;;;;;;17.98;10.43;;;;;;;;;;5092697;28;20040;-65
2022/11/22 06:49:36;;;;;;;33.20;10.85;;;;;;;;;;5093333;28;20044;-65
2022/11/22 06:52:02;;;;;;;21.58;9.57;;;;;;;;;;5093688;28;20161;-65
2022/11/22 06:54:28;;;;;;;21.23;9.80;;;;;;;;;;5092545;28;20350;-65
2022/11/22 06:56:54;;;;;;;19.00;10.40;;;;;;;;;;5092684;28;20047;-65
2022/11/22 06:59:20;;;;;;;17.15;9.45;;;;;;;;;;5090978;28;20121;-64
2022/11/22 07:01:46;;;;;;;24.08;10.25;;;;;;;;;;5090230;28;20040;-64
2022/11/22 07:04:12;;;;;;;21.80;9.05;;;;;;;;;;5091475;28;20504;-65
2022/11/22 07:06:38;;;;;;;15.40;9.07;;;;;;;;;;5071552;28;20028;-67
2022/11/22 07:09:06;;;;;;;24.30;9.73;;;;;;;;;;5084755;28;20055;-66
2022/11/22 07:11:32;;;;;;;22.80;9.27;;;;;;;;;;5091681;28;20044;-65
2022/11/22 07:13:59;;;;;;;24.73;9.35;;;;;;;;;;5091566;28;20043;-65
2022/11/22 07:16:25;;;;;;;18.30;8.88;;;;;;;;;;5090548;28;20203;-65
2022/11/22 07:18:51;;;;;;;90.75;20.85;;;;;;;;;;5091470;28;20073;-65
2022/11/22 07:21:22;;;;;;;19.65;8.50;;;;;;;;;;5090856;28;20044;-66
2022/11/22 07:23:50;;;;;;;24.95;9.10;;;;;;;;;;5091260;28;20482;-64
2022/11/22 07:26:17;;;;;;;23.30;8.98;;;;;;;;;;5090734;28;20039;-64
2022/11/22 07:28:43;;;;;;;18.35;8.82;;;;;;;;;;5083242;28;20047;-64
2022/11/22 07:31:10;;;;;;;18.08;7.38;;;;;;;;;;5090999;28;20050;-66
2022/11/22 07:33:36;;;;;;;19.60;8.02;;;;;;;;;;5084455;28;20044;-66
2022/11/22 07:36:23;;;;;;;26.15;8.07;;;;;;;;;;5079140;28;20041;-67
2022/11/22 07:38:49;;;;;;;39.38;10.02;;;;;;;;;;5088744;28;20466;-66
2022/11/22 07:41:17;;;;;;;21.75;7.47;;;;;;;;;;5088679;28;20047;-66
2022/11/22 07:43:43;;;;;;;17.80;7.20;;;;;;;;;;5089130;28;20044;-66
2022/11/22 07:46:38;;;;;;;19.02;6.82;;;;;;;;;;5089203;28;20131;-66
2022/11/22 07:49:04;;;;;;;20.35;6.43;;;;;;;;;;5076198;28;20055;-65
2022/11/22 07:51:30;;;;;;;17.45;6.38;;;;;;;;;;5089492;28;20090;-65
2022/11/22 07:53:56;;;;;;;25.10;7.07;;;;;;;;;;5090952;28;20511;-67
2022/11/22 07:56:23;;;;;;;22.50;6.30;;;;;;;;;;5089434;28;20505;-67
2022/11/22 07:58:49;;;;;;;24.08;7.50;;;;;;;;;;5086781;28;20120;-65
2022/11/22 08:01:17;;;;;;;24.17;6.50;;;;;;;;;;5082533;28;20086;-65
2022/11/22 08:03:43;;;;;;;17.80;6.05;;;;;;;;;;5081975;28;20110;-65
2022/11/22 08:06:10;;;;;;;25.48;6.38;;;;;;;;;;5088757;28;20091;-66
2022/11/22 08:08:36;;;;;;;13.63;5.22;;;;;;;;;;5086186;28;20048;-66
2022/11/22 08:11:03;;;;;;;18.83;5.85;;;;;;;;;;5088638;28;20585;-66
2022/11/22 08:13:29;;;;;;;21.70;5.75;;;;;;;;;;5089002;28;20040;-69
2022/11/22 08:15:55;;;;;;;16.02;4.60;;;;;;;;;;5085799;28;20056;-67
2022/11/22 08:18:21;;;;;;;19.67;5.28;;;;;;;;;;5088790;28;20075;-64
2022/11/22 08:20:47;;;;;;;18.60;5.28;;;;;;;;;;5090735;28;20044;-65
2022/11/22 08:23:13;;;;;;;22.40;5.03;;;;;;;;;;5088623;28;20036;-66
2022/11/22 08:25:39;;;;;;;16.35;5.20;;;;;;;;;;5089121;28;20043;-67
2022/11/22 08:28:05;;;;;;;18.60;5.20;;;;;;;;;;5088929;28;20044;-68
2022/11/22 08:30:31;;;;;;;14.73;4.40;;;;;;;;;;5088470;28;20475;-64
2022/11/22 08:32:57;;;;;;;16.17;4.40;;;;;;;;;;5089522;28;20047;-67
2022/11/22 08:35:23;;;;;;;17.10;4.40;;;;;;;;;;5089312;28;20040;-67
2022/11/22 08:37:49;;;;;;;12.98;3.97;;;;;;;;;;5089586;28;20036;-67
2022/11/22 08:40:15;;;;;;;10.45;3.55;;;;;;;;;;5090034;28;20097;-66
2022/11/22 08:42:42;;;;;;;13.13;3.88;;;;;;;;;;5091020;28;20513;-67
2022/11/22 08:45:08;;;;;;;19.38;4.85;;;;;;;;;;5093481;28;20100;-69
2022/11/22 08:47:34;;;;;;;15.18;4.38;;;;;;;;;;5089905;28;20036;-69
2022/11/22 08:50:00;;;;;;;14.18;4.20;;;;;;;;;;5093094;28;20062;-66
2022/11/22 08:52:26;;;;;;;17.42;4.20;;;;;;;;;;5093929;28;20490;-68
2022/11/22 08:54:52;;;;;;;9.55;3.17;;;;;;;;;;5093061;28;20135;-68
2022/11/22 08:57:18;;;;;;;18.00;4.03;;;;;;;;;;5091521;28;20052;-67
2022/11/22 08:59:44;;;;;;;15.43;4.05;;;;;;;;;;5090160;28;20394;-69
2022/11/22 09:02:10;;;;;;;14.23;3.78;;;;;;;;;;5080607;28;20048;-69
2022/11/22 09:04:36;;;;;;;17.13;3.75;;;;;;;;;;5081238;28;20090;-69
2022/11/22 09:07:02;;;;;;;17.00;4.00;;;;;;;;;;5091521;28;21290;-69
2022/11/22 09:09:28;;;;;;;15.20;4.00;;;;;;;;;;5092114;28;20093;-67
2022/11/22 09:11:54;;;;;;;19.85;5.38;;;;;;;;;;5094016;28;20430;-68
2022/11/22 09:14:20;;;;;;;12.98;3.42;;;;;;;;;;5080281;28;20080;-69
2022/11/22 09:16:46;;;;;;;15.20;3.60;;;;;;;;;;5091102;28;20081;-67
2022/11/22 09:19:12;;;;;;;19.88;4.65;;;;;;;;;;5091332;28;20123;-66
2022/11/22 09:21:38;;;;;;;14.57;3.63;;;;;;;;;;5073552;28;20055;-66
2022/11/22 09:24:05;;;;;;;18.65;3.88;;;;;;;;;;5092405;28;20089;-66
2022/11/22 09:26:31;;;;;;;14.20;3.53;;;;;;;;;;5092034;28;20778;-66
2022/11/22 09:28:57;;;;;;;9.20;3.22;;;;;;;;;;5092140;28;20437;-67
2022/11/22 09:31:24;;;;;;;13.05;3.67;;;;;;;;;;5092925;28;20387;-68
2022/11/22 09:33:50;;;;;;;14.25;4.13;;;;;;;;;;5091758;28;20518;-69
2022/11/22 09:36:18;;;;;;;16.20;3.85;;;;;;;;;;5091477;28;20043;-68
2022/11/22 09:38:44;;;;;;;15.52;3.65;;;;;;;;;;5092141;28;20040;-68
2022/11/22 09:41:23;;;;;;;14.18;3.30;;;;;;;;;;5091135;28;20036;-68
2022/11/22 09:44:13;;;;;;;15.80;3.60;;;;;;;;;;5091194;28;20063;-69
2022/11/22 09:46:52;;;;;;;13.35;3.53;;;;;;;;;;5091270;28;20040;-65
2022/11/22 09:49:24;;;;;;;11.88;3.13;;;;;;;;;;5092239;28;20402;-66
2022/11/22 09:52:10;;;;;;;15.20;3.97;;;;;;;;;;5093169;28;20040;-64
2022/11/22 09:54:36;;;;;;;11.95;3.13;;;;;;;;;;5091724;28;20507;-71
2022/11/22 09:57:04;;;;;;;9.98;2.90;;;;;;;;;;5090791;28;20075;-67
2022/11/22 09:59:34;;;;;;;11.90;3.15;;;;;;;;;;5091792;28;20048;-66
2022/11/22 10:02:26;;;;;;;9.68;3.17;;;;;;;;;;5091716;28;20032;-66
2022/11/22 10:04:56;;;;;;;11.93;2.97;;;;;;;;;;5091099;28;20137;-67
2022/11/22 10:07:26;;;;;;;14.57;3.17;;;;;;;;;;5091622;28;20040;-67
2022/11/22 10:09:52;;;;;;;13.93;2.92;;;;;;;;;;5082701;28;20051;-69
2022/11/22 10:12:33;;;;;;;11.60;2.95;;;;;;;;;;5090280;28;20395;-69
2022/11/22 10:15:08;;;;;;;10.30;3.28;;;;;;;;;;5087861;28;20129;-69
2022/11/22 10:17:51;;;;;;;7.65;2.63;;;;;;;;;;5092167;28;20059;-71
2022/11/22 10:20:22;;;;;;;8.35;3.00;;;;;;;;;;5082307;28;20040;-73
2022/11/22 10:22:48;;;;;;;13.20;2.78;;;;;;;;;;5090598;28;20376;-70
2022/11/22 10:25:22;;;;;;;8.80;2.63;;;;;;;;;;5092010;28;20043;-76
2022/11/22 10:27:52;;;;;;;9.00;2.67;;;;;;;;;;5091707;28;20590;-71
2022/11/22 10:30:19;;;;;;;10.63;3.20;;;;;;;;;;5090011;28;20723;-74
2022/11/22 10:33:12;;;;;;;13.25;2.83;;;;;;;;;;5090168;28;20063;-76
2022/11/22 10:35:38;;;;;;;;;;;;;;;;;;5090501;28;20597;-69
2022/11/22 10:38:26;;;;;;;13.77;2.78;;;;;;;;;;5091926;28;20284;-66
2022/11/22 10:41:12;;;;;;;8.70;2.67;;;;;;;;;;5079192;28;20051;-67
2022/11/22 10:43:57;;;;;;;12.68;2.55;;;;;;;;;;5091667;28;20067;-68
2022/11/22 10:46:23;;;;;;;17.13;3.10;;;;;;;;;;5093712;28;20047;-70
2022/11/22 10:48:58;;;;;;;9.35;2.50;;;;;;;;;;5089738;28;20043;-67
2022/11/22 10:51:30;;;;;;;12.48;3.15;;;;;;;;;;5076150;28;20044;-69
2022/11/22 10:54:31;;;;;;;11.00;3.15;;;;;;;;;;5092001;28;20093;-67
2022/11/22 10:56:57;;;;;;;9.68;2.50;;;;;;;;;;5088794;28;20075;-69
2022/11/22 10:59:40;;;;;;;12.55;3.15;;;;;;;;;;5085872;28;20075;-68
2022/11/22 11:02:16;;;;;;;14.48;2.40;;;;;;;;;;5090654;28;20050;-68
2022/11/22 11:04:42;;;;;;;11.20;2.28;;;;;;;;;;5088230;28;20447;-67
2022/11/22 11:07:14;;;;;;;11.65;3.10;;;;;;;;;;5092086;28;20044;-67
2022/11/22 11:09:43;;;;;;;9.75;2.15;;;;;;;;;;5088435;28;20188;-67
2022/11/22 11:12:15;;;;;;;15.00;2.92;;;;;;;;;;5088624;28;20123;-67
2022/11/22 11:15:01;;;;;;;11.27;2.20;;;;;;;;;;5086750;28;20043;-67
2022/11/22 11:17:31;;;;;;;10.57;2.35;;;;;;;;;;5089146;28;20462;-67
2022/11/22 11:19:59;;;;;;;10.88;3.22;;;;;;;;;;5090788;28;20102;-68
2022/11/22 11:22:25;;;;;;;8.65;2.25;;;;;;;;;;5083497;28;20051;-67
2022/11/22 11:24:51;;;;;;;11.50;2.78;;;;;;;;;;5090373;28;20035;-67
2022/11/22 11:27:19;;;;;;;10.50;2.50;;;;;;;;;;5090758;28;20441;-67
2022/11/22 11:30:14;;;;;;;11.05;2.50;;;;;;;;;;5090588;28;20044;-67
2022/11/22 11:32:56;;;;;;;9.50;2.20;;;;;;;;;;5089047;28;20084;-67
2022/11/22 11:35:22;;;;;;;;;;;;;;;;;;5091454;28;20101;-68
2022/11/22 11:37:48;;;;;;;6.03;2.08;;;;;;;;;;5089721;28;19920;-66
2022/11/22 11:40:31;;;;;;;8.60;2.40;;;;;;;;;;5088309;28;20047;-66
2022/11/22 11:43:27;;;;;;;13.57;2.90;;;;;;;;;;5090459;28;20040;-66
2022/11/22 11:45:53;;;;;;;12.35;3.25;;;;;;;;;;5089767;28;20048;-66
2022/11/22 11:48:27;;;;;;;11.02;2.45;;;;;;;;;;5090501;28;20147;-66
2022/11/22 11:51:05;;;;;;;9.50;2.50;;;;;;;;;;5090569;28;20123;-66
2022/11/22 11:53:31;;;;;;;11.38;3.00;;;;;;;;;;5082744;28;20047;-66
2022/11/22 11:56:17;;;;;;;10.13;2.50;;;;;;;;;;5090483;28;20036;-66
2022/11/22 11:58:49;;;;;;;7.82;2.47;;;;;;;;;;5083651;28;20062;-66
2022/11/22 12:01:18;;;;;;;8.05;2.28;;;;;;;;;;5090495;28;20028;-66
2022/11/22 12:03:50;;;;;;;9.40;2.10;;;;;;;;;;5077023;28;20040;-66
2022/11/22 12:06:16;;;;;;;10.80;2.15;;;;;;;;;;5089983;28;20155;-66
2022/11/22 12:08:42;;;;;;;13.75;2.30;;;;;;;;;;5090398;28;20709;-66
2022/11/22 12:11:11;;;;;;;9.23;1.85;;;;;;;;;;5089485;28;20036;-66
2022/11/22 12:13:37;;;;;;;9.48;3.05;;;;;;;;;;5090154;28;20042;-66
2022/11/22 12:16:11;;;;;;;8.63;2.53;;;;;;;;;;5090258;28;20127;-66
2022/11/22 12:18:40;;;;;;;6.90;2.35;;;;;;;;;;5080673;28;20123;-68
2022/11/22 12:21:16;;;;;;;7.75;1.88;;;;;;;;;;5090055;28;20036;-69
2022/11/22 12:23:55;;;;;;;9.35;2.28;;;;;;;;;;5075052;28;20079;-70
2022/11/22 12:26:21;;;;;;;7.47;2.10;;;;;;;;;;5085402;28;20040;-70
2022/11/22 12:28:48;;;;;;;5.88;1.60;;;;;;;;;;5082737;28;20047;-68
2022/11/22 12:31:23;;;;;;;11.23;3.67;;;;;;;;;;5082299;28;20040;-68
2022/11/22 12:34:00;;;;;;;18.90;5.07;;;;;;;;;;5077177;28;20036;-68
2022/11/22 12:36:32;;;;;;;12.75;2.50;;;;;;;;;;5084234;28;20036;-68
2022/11/22 12:39:01;;;;;;;5.72;2.00;;;;;;;;;;5081900;28;20051;-67
2022/11/22 12:41:27;;;;;;;7.75;2.00;;;;;;;;;;5087004;28;20090;-66
2022/11/22 12:43:55;;;;;;;10.38;3.10;;;;;;;;;;5094088;28;20040;-66
2022/11/22 12:46:23;;;;;;;8.88;2.30;;;;;;;;;;5089634;28;20119;-67
2022/11/22 12:48:51;;;;;;;12.18;2.30;;;;;;;;;;5093286;28;20663;-67
2022/11/22 12:51:27;;;;;;;5.68;1.95;;;;;;;;;;5094136;28;20049;-66
2022/11/22 12:53:57;;;;;;;9.02;2.25;;;;;;;;;;5093681;28;20044;-67
2022/11/22 12:56:29;;;;;;;9.27;2.05;;;;;;;;;;5092571;28;20040;-66
2022/11/22 12:59:00;;;;;;;6.05;1.67;;;;;;;;;;5092598;28;20040;-67
2022/11/22 13:01:36;;;;;;;6.30;1.85;;;;;;;;;;5092812;28;20059;-69
2022/11/22 13:04:05;;;;;;;7.30;2.25;;;;;;;;;;5076739;28;20040;-70
2022/11/22 13:06:44;;;;;;;5.43;1.65;;;;;;;;;;5091612;28;20121;-71
2022/11/22 13:09:15;;;;;;;6.28;1.70;;;;;;;;;;5093294;28;20173;-66
2022/11/22 13:11:59;;;;;;;6.28;1.27;;;;;;;;;;5093243;28;20175;-67
2022/11/22 13:14:41;;;;;;;8.52;1.33;;;;;;;;;;5093975;28;20036;-67
2022/11/22 13:17:11;;;;;;;6.45;1.65;;;;;;;;;;5091214;28;20060;-67
2022/11/22 13:19:53;;;;;;;10.13;3.38;;;;;;;;;;5071291;28;20080;-67
2022/11/22 13:22:38;;;;;;;7.18;1.20;;;;;;;;;;5092885;28;20089;-68
2022/11/22 13:25:14;;;;;;;4.93;1.30;;;;;;;;;;5091455;28;20040;-68
2022/11/22 13:27:43;;;;;;;4.70;1.75;;;;;;;;;;5089813;28;20051;-68
2022/11/22 13:30:17;;;;;;;6.55;1.45;;;;;;;;;;5092869;28;20044;-69
2022/11/22 13:32:43;;;;;;;5.95;2.08;;;;;;;;;;5086807;28;20570;-68
2022/11/22 13:35:12;;;;;;;9.27;1.65;;;;;;;;;;5079436;28;20124;-68
2022/11/22 13:37:42;;;;;;;8.52;2.13;;;;;;;;;;5092618;28;20036;-68
2022/11/22 13:40:29;;;;;;;7.75;1.75;;;;;;;;;;5091002;28;20044;-67
2022/11/22 13:43:13;;;;;;;4.72;1.33;;;;;;;;;;5082702;28;20054;-68
2022/11/22 13:45:50;;;;;;;5.75;1.55;;;;;;;;;;5092676;28;20047;-68
2022/11/22 13:48:36;;;;;;;6.88;1.58;;;;;;;;;;5092251;28;20075;-68
2022/11/22 13:51:02;;;;;;;5.78;1.38;;;;;;;;;;5073281;28;20056;-66
2022/11/22 13:53:33;;;;;;;6.25;1.20;;;;;;;;;;5088159;28;20063;-66
2022/11/22 13:56:17;;;;;;;6.43;1.80;;;;;;;;;;5092005;28;20051;-66
2022/11/22 13:58:44;;;;;;;6.60;1.70;;;;;;;;;;5092304;28;20051;-68
2022/11/22 14:01:30;;;;;;;5.13;1.23;;;;;;;;;;5087083;28;20047;-68
2022/11/22 14:04:16;;;;;;;7.20;2.00;;;;;;;;;;5092150;28;20032;-68
2022/11/22 14:06:52;;;;;;;3.50;1.90;;;;;;;;;;5091060;28;20096;-68
2022/11/22 14:09:25;;;;;;;7.28;1.58;;;;;;;;;;5090372;28;20090;-68
2022/11/22 14:12:04;;;;;;;7.78;1.77;;;;;;;;;;5091260;28;20043;-69
2022/11/22 14:14:38;;;;;;;5.43;1.90;;;;;;;;;;5090714;28;20545;-69
2022/11/22 14:17:20;;;;;;;8.40;1.92;;;;;;;;;;5090085;28;20064;-68
2022/11/22 14:19:55;;;;;;;5.90;1.77;;;;;;;;;;5087860;28;20056;-67
2022/11/22 14:22:31;;;;;;;5.20;1.52;;;;;;;;;;5091667;28;20039;-67
2022/11/22 14:25:16;;;;;;;6.63;1.63;;;;;;;;;;5090504;28;20036;-67
2022/11/22 14:27:46;;;;;;;3.67;1.67;;;;;;;;;;5092151;28;20040;-65
2022/11/22 14:30:18;;;;;;;6.63;2.05;;;;;;;;;;5091251;28;20109;-66
2022/11/22 14:32:58;;;;;;;5.70;1.60;;;;;;;;;;5090918;28;20043;-66
2022/11/22 14:35:24;;;;;;;7.20;1.55;;;;;;;;;;5088097;28;20048;-66
2022/11/22 14:37:56;;;;;;;7.70;1.20;;;;;;;;;;5085120;28;20056;-67
2022/11/22 14:40:30;;;;;;;4.43;1.48;;;;;;;;;;5090859;28;20047;-66
2022/11/22 14:42:58;;;;;;;2.85;1.20;;;;;;;;;;5084595;28;20197;-66
2022/11/22 14:45:27;;;;;;;5.70;1.60;;;;;;;;;;5087543;28;20043;-66
2022/11/22 14:47:53;;;;;;;3.30;1.35;;;;;;;;;;5089810;28;20082;-66
2022/11/22 14:50:35;;;;;;;6.07;1.55;;;;;;;;;;5084261;28;20132;-68
2022/11/22 14:53:15;;;;;;;11.63;3.00;;;;;;;;;;5081456;28;20253;-67
2022/11/22 14:55:41;;;;;;;6.95;2.00;;;;;;;;;;5089379;28;20048;-67